createdAt,value
2018-06-12T00:00:02.523Z,58.89
2018-06-12T00:01:06.801Z,58.91
2018-06-12T00:02:11.081Z,59.08
2018-06-12T00:03:15.267Z,59.75
2018-06-12T00:04:19.480Z,59.44
2018-06-12T00:05:23.935Z,59.54
2018-06-12T00:06:28.142Z,59.20
2018-06-12T00:07:32.775Z,59.03
2018-06-12T00:08:36.975Z,59.77
2018-06-12T00:09:41.161Z,59.67
2018-06-12T00:10:45.603Z,60.00
2018-06-12T00:11:49.766Z,59.33
2018-06-12T00:12:54.005Z,60.14
2018-06-12T00:13:58.198Z,59.82
2018-06-12T00:15:02.357Z,59.61
2018-06-12T00:16:06.857Z,60.22
2018-06-12T00:17:11.061Z,59.81
2018-06-12T00:18:15.334Z,60.14
2018-06-12T00:19:19.585Z,60.34
2018-06-12T00:20:23.822Z,60.34
2018-06-12T00:21:28.270Z,60.82
2018-06-12T00:22:32.435Z,60.36
2018-06-12T00:23:36.638Z,60.15
2018-06-12T00:24:40.828Z,60.37
2018-06-12T00:25:45.013Z,60.40
2018-06-12T00:26:49.223Z,60.34
2018-06-12T00:27:53.426Z,60.41
2018-06-12T00:28:57.895Z,61.04
2018-06-12T00:30:02.088Z,60.89
2018-06-12T00:31:06.402Z,60.47
2018-06-12T00:32:10.623Z,60.29
2018-06-12T00:33:14.773Z,60.92
2018-06-12T00:34:19.006Z,60.37
2018-06-12T00:35:23.231Z,60.62
2018-06-12T00:36:27.390Z,60.82
2018-06-12T00:37:31.579Z,61.21
2018-06-12T00:38:35.764Z,60.46
2018-06-12T00:39:40.041Z,60.61
2018-06-12T00:40:44.301Z,61.26
2018-06-12T00:41:48.511Z,60.86
2018-06-12T00:42:52.665Z,61.47
2018-06-12T00:43:56.899Z,61.06
2018-06-12T00:45:01.177Z,61.10
2018-06-12T00:46:05.388Z,61.59
2018-06-12T00:47:09.638Z,61.30
2018-06-12T00:48:13.899Z,61.64
2018-06-12T00:49:18.083Z,61.19
2018-06-12T00:50:22.283Z,61.42
2018-06-12T00:51:26.496Z,61.50
2018-06-12T00:52:30.675Z,61.81
2018-06-12T00:53:34.892Z,61.93
2018-06-12T00:54:39.089Z,61.29
2018-06-12T00:55:43.349Z,61.26
2018-06-12T00:56:58.793Z,61.85
2018-06-12T00:58:02.996Z,61.93
2018-06-12T00:59:07.192Z,62.14
2018-06-12T01:00:11.444Z,62.20
2018-06-12T01:01:15.719Z,61.41
2018-06-12T01:02:20.476Z,61.65
2018-06-12T01:03:24.790Z,61.77
2018-06-12T01:04:29.238Z,61.94
2018-06-12T01:05:33.446Z,61.68
2018-06-12T01:06:37.738Z,61.90
2018-06-12T01:07:42.142Z,61.95
2018-06-12T01:08:46.292Z,62.18
2018-06-12T01:09:50.505Z,62.15
2018-06-12T01:10:54.935Z,62.36
2018-06-12T01:11:59.180Z,62.02
2018-06-12T01:13:03.696Z,62.09
2018-06-12T01:14:07.895Z,62.57
2018-06-12T01:15:12.386Z,62.63
2018-06-12T01:16:16.586Z,62.23
2018-06-12T01:17:21.249Z,62.66
2018-06-12T01:18:25.438Z,62.47
2018-06-12T01:19:29.590Z,62.45
2018-06-12T01:20:33.766Z,62.93
2018-06-12T01:21:38.005Z,62.21
2018-06-12T01:22:42.200Z,62.90
2018-06-12T01:23:46.569Z,62.17
2018-06-12T01:24:50.747Z,62.54
2018-06-12T01:25:54.935Z,62.92
2018-06-12T01:27:00.767Z,62.12
2018-06-12T01:28:05.053Z,62.81
2018-06-12T01:29:09.373Z,62.31
2018-06-12T01:30:13.582Z,62.74
2018-06-12T01:31:17.775Z,62.47
2018-06-12T01:32:21.934Z,62.43
2018-06-12T01:33:26.159Z,62.34
2018-06-12T01:34:30.349Z,62.62
2018-06-12T01:35:34.477Z,62.74
2018-06-12T01:36:38.630Z,62.20
2018-06-12T01:37:42.794Z,62.92
2018-06-12T01:38:46.974Z,62.42
2018-06-12T01:39:51.171Z,62.73
2018-06-12T01:40:55.329Z,62.84
2018-06-12T01:41:59.477Z,62.94
2018-06-12T01:43:03.670Z,62.49
2018-06-12T01:44:07.920Z,62.97
2018-06-12T01:45:12.139Z,62.90
2018-06-12T01:46:16.344Z,63.14
2018-06-12T01:47:20.495Z,62.96
2018-06-12T01:48:24.652Z,62.42
2018-06-12T01:49:28.869Z,62.92
2018-06-12T01:50:33.266Z,62.46
2018-06-12T01:51:37.474Z,62.51
2018-06-12T01:52:41.645Z,62.85
2018-06-12T01:53:45.938Z,62.59
2018-06-12T01:54:50.360Z,63.19
2018-06-12T01:55:54.922Z,62.64
2018-06-12T01:56:59.112Z,62.52
2018-06-12T01:58:03.302Z,62.89
2018-06-12T01:59:07.498Z,63.29
2018-06-12T02:00:11.703Z,62.88
2018-06-12T02:01:16.088Z,62.72
2018-06-12T02:02:20.541Z,63.24
2018-06-12T02:03:24.754Z,63.28
2018-06-12T02:04:29.024Z,62.70
2018-06-12T02:05:33.266Z,63.51
2018-06-12T02:06:37.512Z,62.76
2018-06-12T02:07:41.934Z,63.04
2018-06-12T02:08:46.113Z,63.09
2018-06-12T02:09:50.294Z,63.46
2018-06-12T02:10:54.525Z,63.25
2018-06-12T02:11:58.746Z,62.96
2018-06-12T02:13:02.935Z,63.00
2018-06-12T02:14:07.165Z,63.38
2018-06-12T02:15:11.385Z,63.02
2018-06-12T02:16:15.855Z,63.54
2018-06-12T02:17:20.308Z,62.69
2018-06-12T02:18:24.540Z,62.95
2018-06-12T02:19:28.735Z,63.36
2018-06-12T02:20:33.035Z,62.94
2018-06-12T02:21:37.278Z,63.57
2018-06-12T02:22:41.689Z,63.27
2018-06-12T02:23:45.863Z,63.13
2018-06-12T02:24:50.048Z,63.59
2018-06-12T02:25:54.323Z,63.34
2018-06-12T02:26:58.519Z,63.57
2018-06-12T02:28:02.824Z,63.62
2018-06-12T02:29:07.007Z,62.86
2018-06-12T02:30:11.209Z,63.44
2018-06-12T02:31:15.407Z,63.21
2018-06-12T02:32:19.698Z,63.02
2018-06-12T02:33:23.916Z,63.45
2018-06-12T02:34:28.112Z,63.74
2018-06-12T02:35:32.289Z,62.85
2018-06-12T02:36:36.547Z,63.50
2018-06-12T02:37:40.804Z,63.93
2018-06-12T02:38:45.077Z,63.19
2018-06-12T02:39:49.299Z,64.04
2018-06-12T02:40:53.451Z,63.07
2018-06-12T02:41:57.655Z,63.19
2018-06-12T02:43:02.500Z,63.65
2018-06-12T02:44:06.802Z,63.02
2018-06-12T02:45:11.155Z,63.33
2018-06-12T02:46:15.362Z,63.05
2018-06-12T02:47:19.575Z,63.27
2018-06-12T02:48:23.839Z,62.97
2018-06-12T02:49:28.042Z,63.33
2018-06-12T02:50:32.229Z,63.68
2018-06-12T02:51:36.631Z,63.96
2018-06-12T02:52:40.866Z,63.40
2018-06-12T02:53:45.063Z,63.74
2018-06-12T02:54:49.242Z,63.83
2018-06-12T02:55:53.404Z,63.03
2018-06-12T02:56:57.583Z,63.64
2018-06-12T02:58:01.772Z,63.62
2018-06-12T02:59:05.996Z,63.49
2018-06-12T03:00:10.277Z,63.55
2018-06-12T03:01:14.467Z,63.42
2018-06-12T03:02:18.680Z,63.58
2018-06-12T03:03:22.888Z,63.19
2018-06-12T03:04:27.500Z,63.62
2018-06-12T03:05:31.700Z,63.28
2018-06-12T03:06:35.912Z,63.88
2018-06-12T03:07:40.391Z,63.10
2018-06-12T03:08:45.039Z,63.00
2018-06-12T03:09:49.276Z,63.34
2018-06-12T03:10:53.497Z,63.25
2018-06-12T03:11:57.806Z,63.22
2018-06-12T03:13:02.113Z,63.26
2018-06-12T03:14:06.368Z,63.36
2018-06-12T03:15:10.652Z,63.76
2018-06-12T03:16:14.876Z,63.83
2018-06-12T03:17:19.343Z,63.38
2018-06-12T03:18:23.615Z,64.00
2018-06-12T03:19:27.814Z,63.56
2018-06-12T03:20:41.776Z,63.90
2018-06-12T03:21:46.024Z,63.95
2018-06-12T03:22:50.251Z,63.37
2018-06-12T03:23:54.498Z,64.24
2018-06-12T03:24:58.706Z,63.28
2018-06-12T03:26:02.941Z,63.87
2018-06-12T03:27:07.118Z,63.71
2018-06-12T03:28:11.382Z,64.01
2018-06-12T03:29:15.643Z,63.67
2018-06-12T03:30:19.882Z,63.57
2018-06-12T03:31:24.218Z,64.17
2018-06-12T03:32:28.588Z,63.39
2018-06-12T03:33:32.858Z,64.03
2018-06-12T03:34:37.042Z,63.72
2018-06-12T03:35:41.284Z,63.64
2018-06-12T03:36:45.670Z,64.24
2018-06-12T03:37:49.947Z,63.81
2018-06-12T03:38:54.191Z,63.58
2018-06-12T03:39:58.435Z,63.52
2018-06-12T03:41:02.657Z,64.35
2018-06-12T03:42:06.901Z,63.85
2018-06-12T03:43:11.176Z,63.73
2018-06-12T03:44:15.424Z,63.76
2018-06-12T03:45:19.618Z,64.25
2018-06-12T03:46:23.871Z,64.34
2018-06-12T03:47:28.134Z,64.09
2018-06-12T03:48:32.360Z,63.85
2018-06-12T03:49:36.607Z,63.83
2018-06-12T03:50:40.847Z,63.48
2018-06-12T03:51:45.226Z,63.77
2018-06-12T03:52:49.455Z,64.04
2018-06-12T03:53:53.671Z,64.12
2018-06-12T03:54:57.863Z,64.70
2018-06-12T03:56:02.193Z,64.03
2018-06-12T03:57:06.803Z,64.11
2018-06-12T03:58:11.131Z,64.08
2018-06-12T03:59:15.359Z,64.45
2018-06-12T04:00:19.555Z,64.70
2018-06-12T04:01:23.818Z,64.61
2018-06-12T04:02:28.059Z,64.24
2018-06-12T04:03:32.323Z,64.51
2018-06-12T04:04:36.543Z,64.35
2018-06-12T04:05:41.005Z,64.66
2018-06-12T04:06:45.247Z,64.35
2018-06-12T04:07:49.475Z,64.16
2018-06-12T04:08:53.994Z,64.95
2018-06-12T04:09:58.246Z,64.41
2018-06-12T04:11:02.405Z,64.72
2018-06-12T04:12:06.802Z,64.89
2018-06-12T04:13:11.509Z,64.10
2018-06-12T04:14:15.815Z,64.13
2018-06-12T04:15:20.102Z,64.24
2018-06-12T04:16:24.354Z,64.19
2018-06-12T04:17:28.658Z,64.29
2018-06-12T04:18:32.869Z,64.99
2018-06-12T04:19:37.109Z,64.58
2018-06-12T04:20:41.277Z,64.41
2018-06-12T04:21:45.500Z,64.91
2018-06-12T04:22:49.708Z,64.57
2018-06-12T04:23:53.954Z,64.76
2018-06-12T04:24:58.203Z,64.87
2018-06-12T04:26:02.408Z,64.15
2018-06-12T04:27:06.618Z,64.50
2018-06-12T04:28:10.816Z,63.92
2018-06-12T04:29:15.059Z,64.72
2018-06-12T04:30:19.280Z,64.76
2018-06-12T04:31:23.514Z,63.97
2018-06-12T04:32:27.782Z,64.69
2018-06-12T04:33:31.980Z,64.00
2018-06-12T04:34:36.170Z,64.37
2018-06-12T04:35:40.385Z,64.12
2018-06-12T04:36:44.599Z,64.69
2018-06-12T04:37:48.803Z,64.80
2018-06-12T04:38:52.972Z,64.17
2018-06-12T04:39:57.420Z,63.93
2018-06-12T04:41:01.614Z,64.09
2018-06-12T04:42:06.024Z,64.09
2018-06-12T04:43:10.378Z,64.54
2018-06-12T04:44:14.614Z,64.02
2018-06-12T04:45:18.799Z,64.12
2018-06-12T04:46:22.994Z,63.82
2018-06-12T04:47:27.221Z,63.76
2018-06-12T04:48:31.430Z,63.89
2018-06-12T04:49:35.606Z,63.79
2018-06-12T04:50:39.849Z,63.88
2018-06-12T04:51:44.126Z,64.16
2018-06-12T04:52:48.291Z,64.20
2018-06-12T04:53:52.472Z,64.47
2018-06-12T04:54:56.705Z,63.78
2018-06-12T04:56:00.949Z,64.15
2018-06-12T04:57:05.180Z,64.36
2018-06-12T04:58:09.369Z,63.81
2018-06-12T04:59:13.751Z,64.22
2018-06-12T05:00:18.607Z,63.76
2018-06-12T05:01:22.798Z,63.60
2018-06-12T05:02:27.043Z,64.04
2018-06-12T05:03:31.270Z,64.21
2018-06-12T05:04:35.472Z,64.10
2018-06-12T05:05:39.720Z,63.40
2018-06-12T05:06:44.007Z,63.46
2018-06-12T05:07:48.232Z,63.96
2018-06-12T05:08:52.482Z,63.76
2018-06-12T05:09:57.020Z,63.26
2018-06-12T05:11:01.258Z,63.14
2018-06-12T05:12:05.466Z,63.28
2018-06-12T05:13:10.167Z,63.21
2018-06-12T05:14:14.623Z,63.75
2018-06-12T05:15:18.890Z,63.07
2018-06-12T05:16:23.140Z,63.69
2018-06-12T05:17:27.550Z,63.58
2018-06-12T05:18:31.792Z,63.01
2018-06-12T05:19:36.011Z,63.21
2018-06-12T05:20:40.180Z,62.71
2018-06-12T05:21:44.343Z,63.28
2018-06-12T05:22:48.517Z,63.18
2018-06-12T05:23:52.755Z,62.50
2018-06-12T05:24:57.070Z,62.41
2018-06-12T05:26:01.297Z,62.25
2018-06-12T05:27:05.504Z,62.57
2018-06-12T05:28:09.670Z,62.21
2018-06-12T05:29:13.941Z,62.55
2018-06-12T05:30:18.426Z,61.77
2018-06-12T05:31:22.647Z,61.92
2018-06-12T05:32:26.908Z,62.26
2018-06-12T05:33:31.148Z,61.94
2018-06-12T05:34:35.612Z,61.51
2018-06-12T05:35:39.848Z,61.68
2018-06-12T05:36:44.058Z,61.16
2018-06-12T05:37:48.276Z,61.34
2018-06-12T05:38:52.452Z,61.58
2018-06-12T05:39:56.773Z,61.26
2018-06-12T05:41:00.994Z,61.38
2018-06-12T05:42:05.243Z,60.92
2018-06-12T05:43:09.541Z,61.26
2018-06-12T05:44:13.710Z,61.54
2018-06-12T05:45:17.934Z,60.89
2018-06-12T05:46:22.146Z,61.30
2018-06-12T05:47:26.507Z,60.85
2018-06-12T05:48:30.734Z,60.91
2018-06-12T05:49:35.016Z,60.98
2018-06-12T05:50:39.428Z,61.00
2018-06-12T05:51:43.749Z,60.88
2018-06-12T05:52:48.010Z,61.14
2018-06-12T05:53:52.244Z,61.03
2018-06-12T05:54:56.662Z,60.67
2018-06-12T05:56:00.999Z,61.18
2018-06-12T05:57:05.201Z,60.70
2018-06-12T05:58:09.643Z,60.20
2018-06-12T05:59:13.994Z,60.84
2018-06-12T06:00:18.149Z,60.34
2018-06-12T06:01:22.535Z,61.00
2018-06-12T06:02:26.877Z,59.89
2018-06-12T06:03:31.380Z,60.23
2018-06-12T06:04:35.637Z,60.14
2018-06-12T06:05:39.966Z,60.23
2018-06-12T06:06:44.168Z,59.84
2018-06-12T06:07:48.356Z,59.68
2018-06-12T06:08:52.562Z,59.66
2018-06-12T06:09:56.782Z,59.81
2018-06-12T06:11:01.026Z,59.39
2018-06-12T06:12:05.391Z,59.45
2018-06-12T06:13:09.595Z,59.53
2018-06-12T06:14:13.988Z,59.41
2018-06-12T06:15:18.241Z,59.34
2018-06-12T06:16:22.438Z,59.31
2018-06-12T06:17:26.686Z,58.99
2018-06-12T06:18:30.874Z,58.79
2018-06-12T06:19:35.003Z,58.46
2018-06-12T06:20:39.219Z,58.63
2018-06-12T06:21:44.975Z,58.98
2018-06-12T06:22:51.228Z,58.74
2018-06-12T06:23:56.247Z,58.40
2018-06-12T06:25:00.477Z,58.31
2018-06-12T06:26:04.647Z,59.06
2018-06-12T06:28:38.136Z,58.95
2018-06-12T06:29:42.485Z,58.68
2018-06-12T06:30:46.908Z,59.06
2018-06-12T06:31:51.134Z,58.65
2018-06-12T06:32:55.377Z,58.68
2018-06-12T06:33:59.824Z,58.89
2018-06-12T06:35:04.112Z,58.83
2018-06-12T06:36:08.455Z,58.10
2018-06-12T06:37:12.684Z,58.70
2018-06-12T06:38:16.871Z,58.16
2018-06-12T06:39:21.322Z,58.50
2018-06-12T06:40:41.819Z,58.62
2018-06-12T06:41:46.070Z,58.73
2018-06-12T06:42:50.221Z,57.96
2018-06-12T06:43:54.426Z,58.35
2018-06-12T06:44:58.621Z,58.34
2018-06-12T06:46:03.273Z,57.84
2018-06-12T06:47:07.537Z,58.21
2018-06-12T06:48:11.727Z,57.64
2018-06-12T06:49:15.920Z,57.61
2018-06-12T06:50:20.265Z,58.12
2018-06-12T06:51:24.526Z,57.61
2018-06-12T06:52:28.710Z,58.06
2018-06-12T06:53:32.906Z,57.62
2018-06-12T06:54:37.170Z,57.56
2018-06-12T06:55:41.447Z,57.38
2018-06-12T06:56:45.603Z,58.04
2018-06-12T06:57:49.810Z,57.96
2018-06-12T06:58:54.027Z,57.20
2018-06-12T06:59:58.296Z,57.54
2018-06-12T07:01:02.594Z,57.15
2018-06-12T07:02:06.867Z,57.09
2018-06-12T07:03:11.056Z,57.53
2018-06-12T07:04:15.206Z,57.22
2018-06-12T07:05:19.372Z,57.38
2018-06-12T07:06:23.587Z,57.47
2018-06-12T07:07:27.759Z,56.92
2018-06-12T07:08:32.143Z,56.77
2018-06-12T07:09:36.747Z,57.04
2018-06-12T07:10:41.138Z,56.53
2018-06-12T07:11:45.390Z,56.73
2018-06-12T07:12:49.576Z,57.05
2018-06-12T07:13:53.787Z,56.50
2018-06-12T07:14:57.963Z,56.19
2018-06-12T07:16:02.446Z,56.57
2018-06-12T07:17:06.673Z,56.52
2018-06-12T07:18:10.836Z,56.08
2018-06-12T07:19:15.059Z,56.35
2018-06-12T07:20:34.171Z,55.97
2018-06-12T07:21:38.348Z,56.41
2018-06-12T07:22:42.532Z,56.43
2018-06-12T07:23:46.734Z,56.58
2018-06-12T07:24:50.933Z,56.44
2018-06-12T07:25:55.343Z,56.15
2018-06-12T07:26:59.548Z,56.39
2018-06-12T07:28:03.802Z,55.76
2018-06-12T07:29:08.015Z,56.06
2018-06-12T07:30:12.220Z,55.97
2018-06-12T07:31:16.618Z,55.53
2018-06-12T07:32:20.946Z,54.96
2018-06-12T07:33:25.134Z,55.32
2018-06-12T07:34:29.329Z,54.74
2018-06-12T07:35:33.518Z,54.92
2018-06-12T07:36:37.708Z,54.96
2018-06-12T07:37:41.925Z,54.70
2018-06-12T07:38:46.107Z,54.57
2018-06-12T07:39:50.326Z,54.17
2018-06-12T07:40:54.885Z,54.52
2018-06-12T07:41:59.096Z,54.10
2018-06-12T07:43:03.311Z,54.24
2018-06-12T07:44:07.752Z,54.66
2018-06-12T07:45:11.931Z,54.25
2018-06-12T07:46:16.180Z,53.98
2018-06-12T07:47:20.412Z,53.88
2018-06-12T07:48:24.588Z,53.84
2018-06-12T07:49:28.801Z,54.10
2018-06-12T07:50:32.961Z,53.12
2018-06-12T07:51:37.163Z,53.13
2018-06-12T07:52:41.432Z,53.81
2018-06-12T07:53:45.687Z,53.39
2018-06-12T07:54:50.008Z,53.14
2018-06-12T07:55:54.194Z,53.78
2018-06-12T07:56:58.389Z,53.75
2018-06-12T07:58:02.553Z,52.91
2018-06-12T07:59:06.744Z,53.82
2018-06-12T08:00:10.931Z,53.55
2018-06-12T08:01:15.162Z,53.34
2018-06-12T08:02:19.528Z,53.26
2018-06-12T08:03:23.706Z,53.09
2018-06-12T08:04:28.103Z,53.38
2018-06-12T08:05:32.306Z,52.63
2018-06-12T08:06:36.583Z,53.24
2018-06-12T08:07:40.815Z,53.18
2018-06-12T08:08:45.005Z,53.03
2018-06-12T08:09:49.236Z,53.02
2018-06-12T08:10:53.643Z,52.62
2018-06-12T08:11:57.870Z,52.28
2018-06-12T08:13:02.528Z,52.08
2018-06-12T08:14:06.814Z,52.46
2018-06-12T08:15:11.028Z,52.09
2018-06-12T08:16:15.281Z,51.77
2018-06-12T08:17:19.431Z,52.26
2018-06-12T08:18:23.591Z,51.94
2018-06-12T08:19:27.806Z,51.59
2018-06-12T08:20:32.012Z,52.25
2018-06-12T08:21:36.216Z,51.83
2018-06-12T08:22:40.394Z,51.72
2018-06-12T08:23:44.553Z,51.95
2018-06-12T08:24:48.750Z,51.82
2018-06-12T08:25:52.965Z,51.89
2018-06-12T08:26:57.144Z,51.99
2018-06-12T08:28:01.592Z,51.59
2018-06-12T08:29:05.992Z,52.33
2018-06-12T08:30:10.230Z,51.94
2018-06-12T08:31:14.333Z,52.34
2018-06-12T08:32:18.602Z,52.13
2018-06-12T08:33:22.755Z,51.42
2018-06-12T08:34:26.959Z,51.53
2018-06-12T08:35:31.162Z,51.04
2018-06-12T08:36:35.259Z,51.18
2018-06-12T08:37:39.510Z,50.83
2018-06-12T08:38:43.676Z,50.82
2018-06-12T08:39:47.986Z,51.19
2018-06-12T08:40:52.103Z,51.31
2018-06-12T08:41:56.335Z,50.80
2018-06-12T08:43:00.602Z,50.42
2018-06-12T08:44:04.795Z,50.79
2018-06-12T08:45:08.976Z,51.04
2018-06-12T08:46:13.213Z,50.88
2018-06-12T08:47:17.477Z,50.82
2018-06-12T08:48:21.796Z,51.11
2018-06-12T08:49:26.078Z,50.73
2018-06-12T08:50:30.312Z,51.41
2018-06-12T08:51:34.545Z,51.02
2018-06-12T08:52:38.735Z,51.33
2018-06-12T08:53:42.960Z,50.92
2018-06-12T08:54:47.267Z,50.91
2018-06-12T08:55:51.447Z,50.44
2018-06-12T08:56:55.832Z,50.57
2018-06-12T08:58:00.083Z,50.56
2018-06-12T08:59:04.370Z,50.76
2018-06-12T09:00:08.692Z,50.71
2018-06-12T09:01:13.033Z,50.27
2018-06-12T09:02:17.267Z,50.18
2018-06-12T09:03:21.474Z,50.24
2018-06-12T09:04:25.738Z,50.63
2018-06-12T09:05:30.096Z,50.56
2018-06-12T09:06:34.278Z,50.40
2018-06-12T09:07:38.506Z,50.21
2018-06-12T09:08:42.735Z,50.86
2018-06-12T09:09:46.928Z,50.35
2018-06-12T09:10:51.112Z,50.91
2018-06-12T09:11:55.490Z,50.38
2018-06-12T09:12:59.764Z,50.71
2018-06-12T09:14:04.207Z,50.18
2018-06-12T09:15:08.468Z,50.31
2018-06-12T09:16:12.754Z,50.75
2018-06-12T09:17:16.989Z,49.78
2018-06-12T09:18:21.167Z,50.52
2018-06-12T09:19:25.491Z,49.77
2018-06-12T09:20:29.927Z,49.90
2018-06-12T09:21:34.163Z,50.05
2018-06-12T09:22:38.419Z,50.71
2018-06-12T09:23:42.789Z,50.23
2018-06-12T09:24:47.031Z,50.28
2018-06-12T09:25:51.331Z,49.66
2018-06-12T09:26:55.594Z,50.11
2018-06-12T09:27:59.864Z,50.22
2018-06-12T09:29:04.149Z,49.52
2018-06-12T09:30:08.565Z,50.32
2018-06-12T09:31:13.022Z,50.32
2018-06-12T09:32:17.520Z,50.04
2018-06-12T09:33:21.928Z,50.17
2018-06-12T09:34:26.167Z,50.05
2018-06-12T09:35:30.800Z,49.74
2018-06-12T09:36:35.757Z,49.08
2018-06-12T09:37:40.079Z,48.93
2018-06-12T09:38:44.347Z,49.13
2018-06-12T09:39:48.594Z,49.04
2018-06-12T09:40:52.866Z,48.40
2018-06-12T09:41:57.177Z,48.89
2018-06-12T09:43:01.437Z,48.74
2018-06-12T09:44:05.750Z,48.65
2018-06-12T09:45:10.004Z,49.07
2018-06-12T09:46:14.306Z,48.71
2018-06-12T09:47:18.672Z,48.71
2018-06-12T09:48:23.233Z,49.25
2018-06-12T09:49:27.447Z,48.80
2018-06-12T09:50:31.647Z,48.79
2018-06-12T09:51:36.126Z,48.68
2018-06-12T09:52:40.488Z,48.38
2018-06-12T09:53:44.959Z,48.38
2018-06-12T09:54:50.914Z,48.33
2018-06-12T09:55:57.027Z,47.94
2018-06-12T09:57:01.318Z,47.90
2018-06-12T09:58:05.589Z,48.54
2018-06-12T09:59:09.779Z,47.84
2018-06-12T10:00:14.343Z,48.43
2018-06-12T10:01:18.663Z,48.34
2018-06-12T10:02:22.891Z,47.54
2018-06-12T10:03:27.139Z,48.04
2018-06-12T10:04:31.660Z,47.90
2018-06-12T10:05:36.101Z,47.61
2018-06-12T10:06:40.557Z,47.61
2018-06-12T10:07:44.865Z,46.98
2018-06-12T10:08:49.163Z,47.69
2018-06-12T10:09:53.375Z,47.35
2018-06-12T10:10:57.645Z,47.64
2018-06-12T10:12:02.237Z,47.80
2018-06-12T10:13:06.875Z,47.11
2018-06-12T10:14:11.228Z,47.27
2018-06-12T10:15:15.520Z,47.74
2018-06-12T10:16:19.879Z,47.81
2018-06-12T10:17:24.164Z,47.41
2018-06-12T10:18:28.427Z,47.61
2018-06-12T10:19:32.965Z,47.60
2018-06-12T10:20:37.226Z,47.53
2018-06-12T10:21:41.544Z,46.85
2018-06-12T10:22:45.774Z,46.78
2018-06-12T10:23:49.964Z,46.94
2018-06-12T10:24:54.216Z,46.60
2018-06-12T10:25:58.551Z,46.85
2018-06-12T10:27:02.788Z,47.25
2018-06-12T10:28:07.031Z,46.98
2018-06-12T10:29:11.262Z,46.46
2018-06-12T10:30:15.528Z,46.72
2018-06-12T10:31:20.196Z,46.94
2018-06-12T10:32:24.439Z,46.80
2018-06-12T10:33:28.820Z,46.13
2018-06-12T10:34:33.061Z,46.09
2018-06-12T10:35:37.326Z,46.17
2018-06-12T10:36:41.571Z,46.39
2018-06-12T10:37:45.808Z,46.67
2018-06-12T10:38:50.073Z,46.42
2018-06-12T10:39:54.683Z,46.74
2018-06-12T10:40:58.945Z,46.41
2018-06-12T10:42:03.221Z,46.09
2018-06-12T10:43:07.477Z,46.24
2018-06-12T10:44:11.749Z,46.55
2018-06-12T10:45:15.990Z,46.50
2018-06-12T10:46:20.253Z,47.11
2018-06-12T10:47:24.534Z,46.64
2018-06-12T10:48:28.750Z,46.25
2018-06-12T10:49:33.054Z,45.98
2018-06-12T10:50:37.510Z,46.53
2018-06-12T10:51:41.884Z,46.26
2018-06-12T10:52:46.343Z,45.84
2018-06-12T10:53:50.628Z,46.32
2018-06-12T10:54:55.185Z,46.26
2018-06-12T10:55:59.441Z,45.76
2018-06-12T10:57:03.727Z,45.86
2018-06-12T10:58:08.726Z,45.88
2018-06-12T10:59:13.031Z,45.85
2018-06-12T11:00:17.251Z,46.13
2018-06-12T11:01:21.645Z,46.33
2018-06-12T11:02:25.941Z,45.74
2018-06-12T11:03:30.180Z,46.30
2018-06-12T11:04:34.507Z,45.86
2018-06-12T11:05:38.799Z,45.83
2018-06-12T11:06:43.057Z,45.67
2018-06-12T11:07:47.465Z,45.63
2018-06-12T11:08:51.734Z,45.86
2018-06-12T11:09:55.955Z,45.52
2018-06-12T11:11:00.232Z,46.12
2018-06-12T11:12:04.705Z,45.43
2018-06-12T11:13:08.929Z,45.21
2018-06-12T11:14:13.151Z,45.18
2018-06-12T11:15:17.647Z,45.16
2018-06-12T11:16:21.993Z,45.19
2018-06-12T11:17:26.213Z,45.28
2018-06-12T11:18:30.422Z,45.36
2018-06-12T11:19:34.810Z,44.67
2018-06-12T11:20:39.151Z,45.10
2018-06-12T11:21:43.490Z,44.33
2018-06-12T11:22:47.837Z,45.18
2018-06-12T11:23:52.334Z,45.28
2018-06-12T11:24:56.883Z,44.75
2018-06-12T11:26:01.111Z,45.38
2018-06-12T11:27:05.438Z,45.10
2018-06-12T11:28:09.662Z,45.38
2018-06-12T11:29:13.957Z,44.96
2018-06-12T11:30:18.227Z,44.60
2018-06-12T11:31:22.675Z,44.74
2018-06-12T11:32:27.851Z,45.08
2018-06-12T11:33:32.111Z,44.80
2018-06-12T11:34:36.335Z,44.25
2018-06-12T11:35:40.538Z,44.17
2018-06-12T11:36:44.808Z,44.91
2018-06-12T11:37:49.035Z,44.44
2018-06-12T11:38:53.326Z,44.39
2018-06-12T11:39:57.680Z,44.46
2018-06-12T11:41:02.076Z,44.27
2018-06-12T11:42:06.517Z,44.39
2018-06-12T11:43:10.833Z,44.57
2018-06-12T11:44:15.455Z,44.31
2018-06-12T11:45:19.750Z,44.65
2018-06-12T11:46:24.092Z,44.77
2018-06-12T11:47:28.467Z,44.64
2018-06-12T11:48:32.692Z,44.25
2018-06-12T11:49:37.089Z,44.11
2018-06-12T11:50:41.438Z,44.55
2018-06-12T11:51:45.893Z,44.50
2018-06-12T11:52:50.093Z,44.37
2018-06-12T11:53:54.540Z,44.18
2018-06-12T11:54:59.113Z,43.79
2018-06-12T11:56:03.394Z,44.35
2018-06-12T11:57:07.618Z,43.87
2018-06-12T11:58:11.863Z,44.42
2018-06-12T11:59:16.159Z,44.29
2018-06-12T12:00:20.390Z,44.04
2018-06-12T12:01:24.643Z,44.63
2018-06-12T12:02:28.906Z,44.72
2018-06-12T12:03:33.453Z,44.72
2018-06-12T12:04:37.634Z,44.78
2018-06-12T12:05:41.841Z,44.31
2018-06-12T12:06:46.248Z,44.77
2018-06-12T12:07:50.506Z,44.64
2018-06-12T12:08:54.842Z,44.75
2018-06-12T12:09:59.015Z,45.00
2018-06-12T12:11:03.323Z,44.33
2018-06-12T12:12:07.965Z,44.20
2018-06-12T12:13:12.195Z,44.30
2018-06-12T12:14:16.449Z,44.42
2018-06-12T12:15:20.881Z,44.39
2018-06-12T12:16:25.112Z,45.04
2018-06-12T12:17:29.499Z,44.97
2018-06-12T12:18:33.818Z,45.21
2018-06-12T12:19:38.146Z,45.40
2018-06-12T12:20:42.379Z,45.25
2018-06-12T12:21:46.980Z,45.46
2018-06-12T12:22:51.339Z,45.35
2018-06-12T12:23:55.996Z,45.07
2018-06-12T12:25:00.253Z,44.84
2018-06-12T12:26:04.529Z,45.19
2018-06-12T12:27:09.027Z,45.75
2018-06-12T12:28:13.335Z,45.42
2018-06-12T12:29:17.631Z,45.64
2018-06-12T12:30:22.204Z,45.38
2018-06-12T12:31:26.477Z,45.20
2018-06-12T12:32:30.983Z,45.67
2018-06-12T12:33:35.257Z,46.34
2018-06-12T12:34:39.451Z,45.95
2018-06-12T12:35:43.655Z,46.48
2018-06-12T12:36:47.867Z,46.94
2018-06-12T12:37:52.063Z,46.81
2018-06-12T12:38:56.525Z,46.93
2018-06-12T12:40:00.763Z,47.83
2018-06-12T12:41:04.956Z,48.05
2018-06-12T12:42:09.142Z,48.17
2018-06-12T12:43:13.352Z,48.62
2018-06-12T12:44:17.584Z,49.40
2018-06-12T12:45:21.889Z,49.08
2018-06-12T12:46:26.184Z,49.25
2018-06-12T12:47:30.361Z,49.39
2018-06-12T12:48:34.660Z,50.20
2018-06-12T12:49:39.039Z,49.92
2018-06-12T12:50:43.490Z,50.69
2018-06-12T12:51:47.689Z,50.64
2018-06-12T12:52:52.004Z,50.00
2018-06-12T12:53:56.213Z,50.14
2018-06-12T12:55:00.533Z,50.48
2018-06-12T12:56:05.129Z,50.13
2018-06-12T12:57:09.565Z,50.61
2018-06-12T12:58:13.783Z,51.38
2018-06-12T12:59:18.109Z,51.07
2018-06-12T13:00:22.641Z,51.31
2018-06-12T13:01:26.907Z,51.26
2018-06-12T13:02:31.175Z,51.34
2018-06-12T13:03:35.415Z,50.93
2018-06-12T13:04:39.648Z,51.15
2018-06-12T13:05:44.009Z,50.74
2018-06-12T13:06:48.479Z,50.50
2018-06-12T13:07:52.673Z,50.89
2018-06-12T13:08:57.004Z,51.53
2018-06-12T13:10:01.468Z,51.48
2018-06-12T13:11:05.732Z,52.10
2018-06-12T13:12:10.477Z,52.00
2018-06-12T13:13:14.959Z,52.63
2018-06-12T13:14:19.542Z,52.59
2018-06-12T13:15:23.771Z,53.36
2018-06-12T13:16:28.096Z,54.34
2018-06-12T13:17:32.421Z,54.12
2018-06-12T13:18:36.731Z,55.21
2018-06-12T13:19:40.988Z,55.22
2018-06-12T13:20:45.268Z,55.75
2018-06-12T13:21:49.564Z,56.66
2018-06-12T13:22:53.804Z,56.73
2018-06-12T13:23:58.223Z,56.60
2018-06-12T13:25:02.723Z,57.53
2018-06-12T13:26:06.996Z,57.85
2018-06-12T13:27:11.232Z,57.58
2018-06-12T13:28:15.515Z,57.25
2018-06-12T13:29:19.981Z,56.99
2018-06-12T13:30:26.513Z,57.68
2018-06-12T13:31:31.702Z,57.88
2018-06-12T13:32:37.481Z,57.14
2018-06-12T13:33:43.271Z,57.97
2018-06-12T13:34:49.803Z,57.76
2018-06-12T13:35:55.193Z,57.72
2018-06-12T13:37:00.347Z,57.59
2018-06-12T13:38:05.929Z,57.36
2018-06-12T13:39:11.365Z,58.21
2018-06-12T13:40:17.226Z,58.58
2018-06-12T13:41:23.045Z,58.38
2018-06-12T13:42:27.440Z,57.74
2018-06-12T13:43:31.690Z,58.02
2018-06-12T13:44:36.066Z,58.10
2018-06-12T13:45:40.358Z,58.62
2018-06-12T13:46:44.637Z,58.64
2018-06-12T13:47:48.896Z,58.74
2018-06-12T13:48:53.725Z,58.58
2018-06-12T13:49:58.139Z,58.26